createdAt,value
2022-10-19T00:02:24.472Z,102803.94
2022-10-19T00:04:52.175Z,102810.38
2022-10-19T00:07:19.830Z,102797.03
2022-10-19T00:09:49.348Z,102804.31
2022-10-19T00:12:17.389Z,102792.66
2022-10-19T00:14:46.236Z,102800.78
2022-10-19T00:17:13.829Z,102798.28
2022-10-19T00:19:41.586Z,102795.16
2022-10-19T00:22:13.022Z,102795.78
2022-10-19T00:24:41.937Z,102794.94
2022-10-19T00:27:10.977Z,102782.44
2022-10-19T00:29:39.429Z,102787.03
2022-10-19T00:32:07.165Z,102788.91
2022-10-19T00:34:34.836Z,102786.41
2022-10-19T00:37:02.507Z,102782.00
2022-10-19T00:39:30.170Z,102776.59
2022-10-19T00:41:57.881Z,102782.22
2022-10-19T00:45:02.875Z,102779.03
2022-10-19T00:47:31.604Z,102788.88
2022-10-19T00:50:00.475Z,102790.72
2022-10-19T00:52:29.160Z,102791.78
2022-10-19T00:54:59.156Z,102799.25
2022-10-19T00:57:30.828Z,102797.59
2022-10-19T00:59:59.946Z,102794.88
2022-10-19T01:02:29.029Z,102791.53
2022-10-19T01:04:57.173Z,102780.91
2022-10-19T01:07:26.282Z,102795.63
2022-10-19T01:09:54.451Z,102786.69
2022-10-19T01:12:48.513Z,102787.72
2022-10-19T01:15:28.410Z,102779.38
2022-10-19T01:18:05.726Z,102778.53
2022-10-19T01:21:16.032Z,102780.41
2022-10-19T01:24:11.051Z,102790.38
2022-10-19T01:27:06.409Z,102784.34
2022-10-19T01:29:54.549Z,102781.00
2022-10-19T01:32:27.647Z,102778.31
2022-10-19T01:35:06.338Z,102777.66
2022-10-19T01:37:41.839Z,102777.03
2022-10-19T01:40:15.231Z,102772.66
2022-10-19T01:42:47.825Z,102775.56
2022-10-19T01:45:20.705Z,102773.06
2022-10-19T01:47:54.217Z,102773.25
2022-10-19T01:50:28.273Z,102770.75
2022-10-19T01:52:57.054Z,102770.94
2022-10-19T01:55:27.016Z,102773.00
2022-10-19T01:58:02.554Z,102765.09
2022-10-19T02:00:35.658Z,102761.34
2022-10-19T02:03:06.417Z,102758.03
2022-10-19T02:05:36.416Z,102753.00
2022-10-19T02:08:07.563Z,102754.69
2022-10-19T02:10:39.043Z,102755.72
2022-10-19T02:13:08.886Z,102747.81
2022-10-19T02:15:41.554Z,102737.19
2022-10-19T02:18:11.627Z,102742.59
2022-10-19T02:20:39.481Z,102744.47
2022-10-19T02:23:07.950Z,102739.06
2022-10-19T02:25:36.556Z,102734.69
2022-10-19T02:28:05.623Z,102737.38
2022-10-19T02:30:33.385Z,102730.31
2022-10-19T02:33:02.463Z,102734.03
2022-10-19T02:35:30.384Z,102722.59
2022-10-19T02:38:02.265Z,102722.78
2022-10-19T02:40:33.527Z,102715.91
2022-10-19T02:43:06.660Z,102714.25
2022-10-19T02:45:39.895Z,102718.81
2022-10-19T02:48:12.304Z,102708.19
2022-10-19T02:50:44.750Z,102708.41
2022-10-19T02:53:12.488Z,102708.59
2022-10-19T02:58:13.138Z,102709.81
2022-10-19T03:00:40.847Z,102716.06
2022-10-19T03:03:10.615Z,102706.50
2022-10-19T03:05:38.418Z,102711.09
2022-10-19T03:08:06.386Z,102707.94
2022-10-19T03:10:34.065Z,102715.03
2022-10-19T03:13:01.794Z,102708.97
2022-10-19T03:15:29.959Z,102715.41
2022-10-19T03:17:57.706Z,102725.41
2022-10-19T03:20:26.716Z,102721.03
2022-10-19T03:22:54.359Z,102715.63
2022-10-19T03:25:22.101Z,102722.06
2022-10-19T03:27:49.754Z,102707.69
2022-10-19T03:30:17.463Z,102719.53
2022-10-19T03:32:45.217Z,102710.78
2022-10-19T03:35:12.907Z,102719.94
2022-10-19T03:37:41.946Z,102713.91
2022-10-19T03:40:10.667Z,102706.81
2022-10-19T03:42:38.338Z,102711.38
2022-10-19T03:45:06.834Z,102711.59
2022-10-19T03:47:34.666Z,102709.09
2022-10-19T03:50:02.531Z,102711.16
2022-10-19T03:52:30.193Z,102707.81
2022-10-19T03:54:59.197Z,102709.66
2022-10-19T03:57:26.834Z,102709.22
2022-10-19T03:59:54.532Z,102713.59
2022-10-19T04:02:22.179Z,102715.66
2022-10-19T04:04:49.858Z,102714.81
2022-10-19T04:07:17.484Z,102713.34
2022-10-19T04:09:45.617Z,102718.13
2022-10-19T04:12:14.601Z,102704.81
2022-10-19T04:14:56.343Z,102707.50
2022-10-19T04:17:25.591Z,102704.81
2022-10-19T04:19:53.247Z,102711.25
2022-10-19T04:22:20.899Z,102705.00
2022-10-19T04:24:48.582Z,102705.59
2022-10-19T04:27:17.715Z,102703.72
2022-10-19T04:29:45.458Z,102703.91
2022-10-19T04:32:13.104Z,102701.22
2022-10-19T04:34:41.125Z,102701.41
2022-10-19T04:37:08.773Z,102696.19
2022-10-19T04:39:39.510Z,102695.38
2022-10-19T04:42:07.203Z,102705.34
2022-10-19T04:44:36.224Z,102703.66
2022-10-19T04:47:03.940Z,102693.06
2022-10-19T04:49:31.600Z,102703.84
2022-10-19T04:51:59.258Z,102703.84
2022-10-19T04:54:26.992Z,102713.00
2022-10-19T04:56:54.779Z,102709.66
2022-10-19T04:59:22.425Z,102709.66
2022-10-19T05:01:51.401Z,102698.84
2022-10-19T05:04:19.072Z,102707.13
2022-10-19T05:06:46.698Z,102709.00
2022-10-19T05:09:14.578Z,102712.09
2022-10-19T05:11:42.243Z,102711.25
2022-10-19T05:14:09.953Z,102705.84
2022-10-19T05:16:37.707Z,102703.34
2022-10-19T05:19:06.706Z,102714.16
2022-10-19T05:21:34.500Z,102704.38
2022-10-19T05:24:02.207Z,102700.00
2022-10-19T05:26:30.222Z,102695.00
2022-10-19T05:29:01.632Z,102690.81
2022-10-19T05:31:32.000Z,102689.31
2022-10-19T05:34:00.608Z,102680.22
2022-10-19T05:36:34.447Z,102673.13
2022-10-19T05:39:04.896Z,102678.50
2022-10-19T05:41:32.572Z,102686.63
2022-10-19T05:44:01.545Z,102676.19
2022-10-19T05:46:30.639Z,102679.75
2022-10-19T05:48:59.093Z,102677.03
2022-10-19T05:51:29.161Z,102675.94
2022-10-19T05:53:57.688Z,102681.16
2022-10-19T05:56:27.470Z,102662.66
2022-10-19T05:58:56.711Z,102670.56
2022-10-19T06:01:24.776Z,102655.53
2022-10-19T06:03:54.031Z,102668.25
2022-10-19T06:06:22.255Z,102668.25
2022-10-19T06:08:53.425Z,102663.69
2022-10-19T06:11:22.848Z,102667.41
2022-10-19T06:13:52.066Z,102667.59
2022-10-19T06:16:20.633Z,102663.22
2022-10-19T06:18:48.339Z,102658.41
2022-10-19T06:21:17.615Z,102654.22
2022-10-19T06:23:45.368Z,102655.06
2022-10-19T06:26:15.580Z,102661.31
2022-10-19T06:28:45.001Z,102662.13
2022-10-19T06:31:13.580Z,102656.75
2022-10-19T06:33:43.170Z,102663.16
2022-10-19T06:36:13.777Z,102662.53
2022-10-19T06:38:41.911Z,102660.84
2022-10-19T06:41:10.800Z,102676.00
2022-10-19T06:43:40.326Z,102675.00
2022-10-19T06:46:09.227Z,102664.78
2022-10-19T06:48:36.926Z,102665.41
2022-10-19T06:51:07.677Z,102669.97
2022-10-19T06:53:35.701Z,102671.84
2022-10-19T06:56:05.774Z,102669.34
2022-10-19T06:58:36.536Z,102672.88
2022-10-19T07:01:08.487Z,102674.72
2022-10-19T07:03:36.841Z,102665.16
2022-10-19T07:06:06.387Z,102667.03
2022-10-19T07:08:35.067Z,102666.00
2022-10-19T07:11:04.438Z,102669.06
2022-10-19T07:13:32.466Z,102671.59
2022-10-19T07:16:02.684Z,102672.81
2022-10-19T07:18:31.844Z,102668.88
2022-10-19T07:21:00.975Z,102677.63
2022-10-19T07:23:31.196Z,102676.97
2022-10-19T07:26:01.803Z,102679.03
2022-10-19T07:28:30.791Z,102675.31
2022-10-19T07:30:58.530Z,102669.06
2022-10-19T07:33:26.284Z,102671.97
2022-10-19T07:36:01.693Z,102669.06
2022-10-19T07:38:30.016Z,102669.25
2022-10-19T07:41:02.245Z,102669.25
2022-10-19T07:43:29.904Z,102661.38
2022-10-19T07:46:02.555Z,102662.00
2022-10-19T07:48:30.747Z,102655.78
2022-10-19T07:50:58.593Z,102660.97
2022-10-19T07:53:27.640Z,102660.16
2022-10-19T07:55:55.305Z,102655.59
2022-10-19T07:58:23.006Z,102655.59
2022-10-19T08:00:50.719Z,102654.56
2022-10-19T08:03:57.596Z,102648.31
2022-10-19T08:06:08.060Z,102638.94
2022-10-19T08:08:37.824Z,102641.91
2022-10-19T08:11:09.384Z,102658.94
2022-10-19T08:13:37.113Z,102652.50
2022-10-19T08:16:05.571Z,102648.13
2022-10-19T08:18:33.685Z,102644.59
2022-10-19T08:21:03.314Z,102630.28
2022-10-19T08:23:31.049Z,102623.84
2022-10-19T08:26:00.179Z,102625.06
2022-10-19T08:28:27.915Z,102621.34
2022-10-19T08:30:58.868Z,102609.72
2022-10-19T08:33:27.044Z,102620.50
2022-10-19T08:35:54.914Z,102608.88
2022-10-19T08:38:22.559Z,102619.47
2022-10-19T08:40:50.302Z,102610.16
2022-10-19T08:43:28.977Z,102611.84
2022-10-19T08:46:03.869Z,102609.97
2022-10-19T08:48:36.603Z,102614.97
2022-10-19T08:51:08.052Z,102612.28
2022-10-19T08:53:41.919Z,102606.88
2022-10-19T08:56:45.680Z,102614.97
2022-10-19T08:59:16.086Z,102608.09
2022-10-19T09:01:52.651Z,102606.88
2022-10-19T09:04:24.844Z,102600.44
2022-10-19T09:07:22.653Z,102593.38
2022-10-19T09:09:52.084Z,102600.25
2022-10-19T09:12:32.840Z,102589.28
2022-10-19T09:15:04.884Z,102602.56
2022-10-19T09:17:33.703Z,102609.44
2022-10-19T09:20:15.792Z,102619.22
2022-10-19T09:22:44.680Z,102614.50
2022-10-19T09:25:16.090Z,102605.97
2022-10-19T09:27:46.908Z,102610.34
2022-10-19T09:30:21.025Z,102608.03
2022-10-19T09:32:51.082Z,102609.50
2022-10-19T09:35:27.256Z,102593.31
2022-10-19T09:37:56.799Z,102595.81
2022-10-19T09:40:27.478Z,102604.75
2022-10-19T09:42:58.529Z,102596.84
2022-10-19T09:45:41.750Z,102595.16
2022-10-19T09:48:19.246Z,102581.41
2022-10-19T09:50:52.775Z,102590.22
2022-10-19T09:53:22.322Z,102578.38
2022-10-19T09:55:58.310Z,102585.44
2022-10-19T09:58:30.574Z,102576.13
2022-10-19T10:01:03.627Z,102571.56
2022-10-19T10:03:35.163Z,102570.38
2022-10-19T10:06:06.711Z,102567.28
2022-10-19T10:08:37.630Z,102572.47
2022-10-19T10:11:08.993Z,102584.56
2022-10-19T10:13:39.755Z,102578.13
2022-10-19T10:16:11.974Z,102583.31
2022-10-19T10:18:51.923Z,102571.50
2022-10-19T10:21:25.675Z,102561.72
2022-10-19T10:24:03.131Z,102559.03
2022-10-19T10:26:30.721Z,102563.00
2022-10-19T10:29:01.370Z,102567.16
2022-10-19T10:31:31.667Z,102563.88
2022-10-19T10:34:11.011Z,102558.91
2022-10-19T10:36:54.761Z,102556.00
2022-10-19T10:39:24.774Z,102552.28
2022-10-19T10:41:52.621Z,102539.41
2022-10-19T10:44:24.389Z,102538.38
2022-10-19T10:46:56.820Z,102535.47
2022-10-19T10:49:26.550Z,102541.09
2022-10-19T10:51:57.012Z,102537.16
2022-10-19T10:54:26.689Z,102539.66
2022-10-19T10:57:13.804Z,102536.56
2022-10-19T10:59:51.194Z,102538.22
2022-10-19T11:02:38.306Z,102537.00
2022-10-19T11:05:12.645Z,102532.22
2022-10-19T11:07:44.944Z,102534.72
2022-10-19T11:10:22.047Z,102515.63
2022-10-19T11:12:56.178Z,102507.06
2022-10-19T11:18:12.660Z,102512.50
2022-10-19T11:20:46.985Z,102496.94
2022-10-19T11:23:19.723Z,102493.81
2022-10-19T11:26:09.338Z,102487.41
2022-10-19T11:28:53.682Z,102477.19
2022-10-19T11:31:26.431Z,102461.59
2022-10-19T11:34:03.330Z,102466.78
2022-10-19T11:36:43.363Z,102450.59
2022-10-19T11:39:28.836Z,102448.72
2022-10-19T11:42:07.339Z,102439.56
2022-10-19T11:44:47.865Z,102431.47
2022-10-19T11:47:30.993Z,102422.31
2022-10-19T11:50:11.385Z,102419.19
2022-10-19T11:52:48.586Z,102407.97
2022-10-19T11:55:29.334Z,102412.13
2022-10-19T11:58:05.264Z,102403.59
2022-10-19T12:00:41.125Z,102396.97
2022-10-19T12:03:37.676Z,102394.03
2022-10-19T12:06:15.056Z,102386.34
2022-10-19T12:08:56.592Z,102392.38
2022-10-19T12:11:34.687Z,102388.22
2022-10-19T12:14:06.175Z,102379.28
2022-10-19T12:16:38.985Z,102376.38
2022-10-19T12:19:13.904Z,102381.97
2022-10-19T12:21:44.179Z,102374.50
2022-10-19T12:24:15.712Z,102370.75
2022-10-19T12:26:45.426Z,102370.97
2022-10-19T12:29:16.596Z,102362.63
2022-10-19T12:31:45.532Z,102355.75
2022-10-19T12:34:26.564Z,102350.56
2022-10-19T12:37:01.487Z,102347.03
2022-10-19T12:39:36.219Z,102346.81
2022-10-19T12:42:12.983Z,102346.63
2022-10-19T12:44:58.592Z,102339.31
2022-10-19T12:47:27.350Z,102327.88
2022-10-19T12:49:56.108Z,102320.81
2022-10-19T12:52:41.909Z,102323.31
2022-10-19T12:55:29.720Z,102327.66
2022-10-19T12:58:00.837Z,102329.34
2022-10-19T13:00:31.577Z,102327.06
2022-10-19T13:03:03.007Z,102330.19
2022-10-19T13:05:33.023Z,102317.28
2022-10-19T13:08:06.107Z,102315.59
2022-10-19T13:10:36.132Z,102322.69
2022-10-19T13:13:04.101Z,102314.34
2022-10-19T13:15:56.026Z,102308.53
2022-10-19T13:19:07.018Z,102305.19
2022-10-19T13:22:01.466Z,102303.31
2022-10-19T13:24:34.100Z,102297.47
2022-10-19T13:27:39.501Z,102285.84
2022-10-19T13:30:46.914Z,102276.88
2022-10-19T13:33:51.855Z,102272.31
2022-10-19T13:36:21.472Z,102266.69
2022-10-19T13:39:05.947Z,102262.94
2022-10-19T13:41:51.423Z,102255.84
2022-10-19T13:44:29.044Z,102252.09
2022-10-19T13:47:29.425Z,102256.25
2022-10-19T13:50:35.311Z,102251.69
2022-10-19T13:53:25.692Z,102247.94
2022-10-19T13:56:03.012Z,102245.84
2022-10-19T13:59:03.043Z,102241.25
2022-10-19T14:01:45.411Z,102248.13
2022-10-19T14:04:22.640Z,102234.19
2022-10-19T14:06:54.826Z,102235.00
2022-10-19T14:09:47.045Z,102241.66
2022-10-19T14:12:22.318Z,102237.91
2022-10-19T14:14:53.410Z,102224.16
2022-10-19T14:17:25.486Z,102234.16
2022-10-19T14:19:55.322Z,102236.88
2022-10-19T14:22:27.149Z,102228.31
2022-10-19T14:25:02.353Z,102234.34
2022-10-19T14:27:31.785Z,102228.31
2022-10-19T14:29:59.748Z,102227.28
2022-10-19T14:32:30.416Z,102226.66
2022-10-19T14:37:36.652Z,102214.16
2022-10-19T14:40:07.960Z,102212.06
2022-10-19T14:42:44.080Z,102208.53
2022-10-19T14:45:16.710Z,102199.81
2022-10-19T14:48:01.120Z,102195.84
2022-10-19T14:50:47.999Z,102191.88
2022-10-19T14:53:33.684Z,102200.00
2022-10-19T14:56:05.057Z,102198.13
2022-10-19T14:58:39.491Z,102193.75
2022-10-19T15:01:08.003Z,102191.88
2022-10-19T15:03:40.236Z,102188.94
2022-10-19T15:06:19.216Z,102190.81
2022-10-19T15:08:50.436Z,102179.38
2022-10-19T15:11:25.830Z,102176.69
2022-10-19T15:14:00.088Z,102167.50
2022-10-19T15:16:42.568Z,102172.09
2022-10-19T15:19:20.166Z,102165.03
2022-10-19T15:21:47.984Z,102169.38
2022-10-19T15:24:27.191Z,102162.94
2022-10-19T15:27:08.636Z,102157.50
2022-10-19T15:29:36.968Z,102148.56
2022-10-19T15:32:15.908Z,102153.16
2022-10-19T15:34:46.634Z,102153.97
2022-10-19T15:37:21.039Z,102152.09
2022-10-19T15:39:49.208Z,102144.81
2022-10-19T15:42:36.812Z,102132.09
2022-10-19T15:45:05.693Z,102131.28
2022-10-19T15:47:34.373Z,102125.03
2022-10-19T15:50:04.226Z,102126.69
2022-10-19T15:52:34.689Z,102118.56
2022-10-19T15:55:02.774Z,102116.47
2022-10-19T15:57:33.393Z,102116.47
2022-10-19T16:00:03.154Z,102107.53
2022-10-19T16:02:30.834Z,102097.75
2022-10-19T16:04:58.634Z,102090.69
2022-10-19T16:07:30.189Z,102088.81
2022-10-19T16:09:59.012Z,102086.31
2022-10-19T16:12:27.707Z,102085.50
2022-10-19T16:14:55.846Z,102081.97
2022-10-19T16:17:23.813Z,102091.13
2022-10-19T16:19:51.556Z,102093.00
2022-10-19T16:22:19.326Z,102096.75
2022-10-19T16:24:48.402Z,102092.38
2022-10-19T16:27:16.440Z,102086.16
2022-10-19T16:29:44.738Z,102079.91
2022-10-19T16:32:12.868Z,102070.97
2022-10-19T16:34:41.293Z,102063.88
2022-10-19T16:37:09.008Z,102056.81
2022-10-19T16:39:36.653Z,102059.31
2022-10-19T16:42:05.868Z,102051.63
2022-10-19T16:44:33.573Z,102046.22
2022-10-19T16:47:01.347Z,102047.25
2022-10-19T16:49:29.119Z,102047.47
2022-10-19T16:51:57.714Z,102049.13
2022-10-19T16:54:26.920Z,102039.38
2022-10-19T16:56:55.638Z,102045.00
2022-10-19T16:59:24.789Z,102047.69
2022-10-19T17:01:53.858Z,102037.09
2022-10-19T17:04:22.071Z,102039.81
2022-10-19T17:06:49.884Z,102032.75
2022-10-19T17:12:05.718Z,102029.41
2022-10-19T17:14:37.682Z,102025.88
2022-10-19T17:17:05.372Z,102023.41
2022-10-19T17:19:33.580Z,102027.97
2022-10-19T17:22:02.849Z,102026.09
2022-10-19T17:24:30.769Z,102023.63
2022-10-19T17:26:59.626Z,102016.56
2022-10-19T17:29:27.330Z,102014.06
2022-10-19T17:31:56.384Z,102013.25
2022-10-19T17:34:24.078Z,102014.06
2022-10-19T17:36:51.855Z,102016.16
2022-10-19T17:39:25.652Z,102014.28
2022-10-19T17:42:01.433Z,102015.13
2022-10-19T17:44:30.602Z,102012.63
2022-10-19T17:47:00.807Z,102009.94
2022-10-19T17:49:29.716Z,102020.13
2022-10-19T17:51:57.409Z,102020.34
2022-10-19T17:54:25.142Z,102022.84
2022-10-19T17:56:52.861Z,102029.91
2022-10-19T17:59:30.364Z,102030.75
2022-10-19T18:02:04.334Z,102028.25
2022-10-19T18:04:32.114Z,102022.84
2022-10-19T18:07:00.017Z,102025.53
2022-10-19T18:09:27.815Z,102016.59
2022-10-19T18:11:55.504Z,102017.66
2022-10-19T18:14:23.183Z,102014.72
2022-10-19T18:16:52.045Z,102003.28
2022-10-19T18:19:21.231Z,102007.88
2022-10-19T18:21:49.351Z,101998.94
2022-10-19T18:24:20.397Z,102005.16
2022-10-19T18:26:49.134Z,102007.88
2022-10-19T18:29:18.947Z,102013.91
2022-10-19T18:31:51.306Z,102022.00
2022-10-19T18:34:22.933Z,102020.97
2022-10-19T18:36:50.646Z,102017.44
2022-10-19T18:39:18.758Z,102010.16
2022-10-19T18:41:46.473Z,102004.94
2022-10-19T18:44:14.925Z,101999.53
2022-10-19T18:46:42.675Z,101992.47
2022-10-19T18:49:12.502Z,101979.16
2022-10-19T18:51:41.575Z,101982.72
2022-10-19T18:54:09.392Z,101972.31
2022-10-19T18:56:37.417Z,101977.72
2022-10-19T18:59:05.558Z,101982.28
2022-10-19T19:01:33.535Z,101982.50
2022-10-19T19:04:08.456Z,101970.84
2022-10-19T19:06:37.367Z,101968.97
2022-10-19T19:09:08.730Z,101954.84
2022-10-19T19:11:38.322Z,101961.31
2022-10-19T19:14:08.632Z,101955.91
2022-10-19T19:16:38.223Z,101952.59
2022-10-19T19:19:06.950Z,101943.63
2022-10-19T19:21:36.440Z,101932.00
2022-10-19T19:24:08.144Z,101933.88
2022-10-19T19:26:39.436Z,101924.09
2022-10-19T19:29:07.159Z,101916.22
2022-10-19T19:31:35.218Z,101902.91
2022-10-19T19:34:05.750Z,101907.72
2022-10-19T19:36:33.729Z,101903.13
2022-10-19T19:39:01.464Z,101895.25
2022-10-19T19:41:31.200Z,101891.94
2022-10-19T19:43:59.001Z,101891.94
2022-10-19T19:46:27.307Z,101894.03
2022-10-19T19:49:00.880Z,101890.50
2022-10-19T19:51:29.576Z,101889.88
2022-10-19T19:53:57.663Z,101886.13
2022-10-19T19:56:25.585Z,101878.25
2022-10-19T19:58:57.645Z,101881.16
2022-10-19T20:01:26.041Z,101867.88
2022-10-19T20:03:53.805Z,101861.63
2022-10-19T20:06:25.067Z,101846.91
2022-10-19T20:08:54.249Z,101850.44
2022-10-19T20:11:22.001Z,101846.06
2022-10-19T20:13:50.027Z,101853.34
2022-10-19T20:16:23.801Z,101840.88
2022-10-19T20:18:56.888Z,101842.75
2022-10-19T20:21:25.634Z,101841.09
2022-10-19T20:23:53.282Z,101846.72
2022-10-19T20:26:22.601Z,101843.19
2022-10-19T20:28:50.924Z,101841.31
2022-10-19T20:31:20.688Z,101821.63
2022-10-19T20:33:48.933Z,101829.69
2022-10-19T20:36:18.559Z,101840.72
2022-10-19T20:38:48.496Z,101843.19
2022-10-19T20:41:16.210Z,101840.28
2022-10-19T20:43:43.883Z,101837.34
2022-10-19T20:46:13.194Z,101822.63
2022-10-19T20:48:42.510Z,101826.97
2022-10-19T20:51:11.858Z,101825.09
2022-10-19T20:53:39.803Z,101819.09
2022-10-19T20:56:09.394Z,101820.16
2022-10-19T20:58:38.731Z,101822.84
2022-10-19T21:01:08.579Z,101811.03
2022-10-19T21:03:36.821Z,101822.03
2022-10-19T21:06:07.102Z,101822.25
2022-10-19T21:08:35.373Z,101818.72
2022-10-19T21:11:11.666Z,101818.94
2022-10-19T21:13:39.402Z,101818.94
2022-10-19T21:16:11.060Z,101818.72
2022-10-19T21:18:39.089Z,101829.31
2022-10-19T21:21:19.108Z,101822.84
2022-10-19T21:23:50.916Z,101812.88
2022-10-19T21:26:18.891Z,101806.41
2022-10-19T21:28:48.242Z,101797.47
2022-10-19T21:31:17.876Z,101793.94
2022-10-19T21:33:46.056Z,101795.00
2022-10-19T21:36:15.224Z,101790.47
2022-10-19T21:38:44.622Z,101794.84
2022-10-19T21:41:14.525Z,101797.09
2022-10-19T21:43:42.574Z,101789.19
2022-10-19T21:46:13.550Z,101783.78
2022-10-19T21:48:41.875Z,101774.47
2022-10-19T21:51:21.805Z,101785.06
2022-10-19T21:53:51.557Z,101779.88
2022-10-19T21:56:19.207Z,101777.41
2022-10-19T21:58:47.374Z,101769.28
2022-10-19T22:01:15.852Z,101767.63
2022-10-19T22:03:43.795Z,101766.81
2022-10-19T22:06:12.657Z,101762.47
2022-10-19T22:08:41.047Z,101760.59
2022-10-19T22:11:12.463Z,101755.78
2022-10-19T22:13:40.443Z,101750.16
2022-10-19T22:16:10.356Z,101744.75
2022-10-19T22:18:38.330Z,101741.22
2022-10-19T22:21:08.448Z,101730.41
2022-10-19T22:23:36.360Z,101743.09
2022-10-19T22:26:14.463Z,101739.34
2022-10-19T22:28:42.488Z,101730.19
2022-10-19T22:31:10.561Z,101736.19
2022-10-19T22:33:38.299Z,101732.44
2022-10-19T22:36:07.924Z,101729.75
2022-10-19T22:38:35.916Z,101717.28
2022-10-19T22:41:58.698Z,101719.97
2022-10-19T22:44:27.749Z,101711.88
2022-10-19T22:46:55.511Z,101704.81
2022-10-19T22:49:23.367Z,101696.09
2022-10-19T22:51:51.099Z,101692.56
2022-10-19T22:54:18.750Z,101689.88
2022-10-19T22:56:46.450Z,101691.16
2022-10-19T22:59:14.162Z,101688.44
2022-10-19T23:01:43.246Z,101686.78
2022-10-19T23:04:11.033Z,101689.72
2022-10-19T23:06:38.726Z,101678.69
2022-10-19T23:09:06.503Z,101669.97
2022-10-19T23:11:34.231Z,101668.31
2022-10-19T23:14:01.980Z,101674.78
2022-10-19T23:16:29.648Z,101666.09
2022-10-19T23:18:58.705Z,101664.66
2022-10-19T23:21:26.370Z,101661.13
2022-10-19T23:23:54.693Z,101675.69
2022-10-19T23:26:24.712Z,101671.34
2022-10-19T23:28:52.459Z,101670.53
2022-10-19T23:31:23.603Z,101671.34
2022-10-19T23:33:52.238Z,101667.22
2022-10-19T23:36:23.517Z,101661.22
2022-10-19T23:38:52.454Z,101670.13
2022-10-19T23:41:20.751Z,101662.25
2022-10-19T23:43:49.129Z,101650.63
2022-10-19T23:46:16.986Z,101647.09
2022-10-19T23:48:44.650Z,101643.56
2022-10-19T23:51:16.314Z,101629.69
2022-10-19T23:53:47.401Z,101632.16
2022-10-19T23:56:17.186Z,101627.81
2022-10-19T23:58:45.081Z,101624.28
